sensor_id;sensor_type;location;lat;lon;timestamp;P1;durP1;ratioP1;P2;durP2;ratioP2
27580;SDS011;63557;52.302;7.964;2022-11-28T00:02:52;12.63;;;9.00;;
27580;SDS011;63557;52.302;7.964;2022-11-28T00:07:53;13.75;;;9.32;;
27580;SDS011;63557;52.302;7.964;2022-11-28T00:12:54;13.88;;;9.23;;
27580;SDS011;63557;52.302;7.964;2022-11-28T00:17:55;13.07;;;8.50;;
27580;SDS011;63557;52.302;7.964;2022-11-28T00:22:55;12.90;;;8.83;;
27580;SDS011;63557;52.302;7.964;2022-11-28T00:27:55;14.10;;;8.83;;
27580;SDS011;63557;52.302;7.964;2022-11-28T00:32:57;10.48;;;8.98;;
27580;SDS011;63557;52.302;7.964;2022-11-28T00:37:57;14.90;;;9.90;;
27580;SDS011;63557;52.302;7.964;2022-11-28T00:42:58;13.33;;;8.80;;
27580;SDS011;63557;52.302;7.964;2022-11-28T00:47:58;11.73;;;8.23;;
27580;SDS011;63557;52.302;7.964;2022-11-28T00:52:58;14.13;;;9.53;;
27580;SDS011;63557;52.302;7.964;2022-11-28T00:57:59;11.93;;;9.25;;
27580;SDS011;63557;52.302;7.964;2022-11-28T01:02:59;12.95;;;8.82;;
27580;SDS011;63557;52.302;7.964;2022-11-28T01:08:00;14.70;;;8.60;;
27580;SDS011;63557;52.302;7.964;2022-11-28T01:13:00;12.17;;;8.17;;
27580;SDS011;63557;52.302;7.964;2022-11-28T01:18:01;10.32;;;8.05;;
27580;SDS011;63557;52.302;7.964;2022-11-28T01:23:01;13.50;;;8.80;;
27580;SDS011;63557;52.302;7.964;2022-11-28T01:28:02;12.77;;;8.60;;
27580;SDS011;63557;52.302;7.964;2022-11-28T01:33:02;10.95;;;8.07;;
27580;SDS011;63557;52.302;7.964;2022-11-28T01:38:03;14.63;;;8.20;;
27580;SDS011;63557;52.302;7.964;2022-11-28T01:43:03;9.82;;;7.97;;
27580;SDS011;63557;52.302;7.964;2022-11-28T01:48:03;11.40;;;7.77;;
27580;SDS011;63557;52.302;7.964;2022-11-28T01:53:05;13.35;;;7.82;;
27580;SDS011;63557;52.302;7.964;2022-11-28T01:58:07;11.13;;;8.30;;
27580;SDS011;63557;52.302;7.964;2022-11-28T02:03:11;13.23;;;9.23;;
27580;SDS011;63557;52.302;7.964;2022-11-28T02:08:12;12.55;;;8.65;;
27580;SDS011;63557;52.302;7.964;2022-11-28T02:13:19;11.93;;;8.85;;
27580;SDS011;63557;52.302;7.964;2022-11-28T02:18:27;11.88;;;8.38;;
27580;SDS011;63557;52.302;7.964;2022-11-28T02:33:52;12.73;;;8.45;;
27580;SDS011;63557;52.302;7.964;2022-11-28T02:39:02;13.43;;;8.48;;
27580;SDS011;63557;52.302;7.964;2022-11-28T02:44:13;13.05;;;8.43;;
27580;SDS011;63557;52.302;7.964;2022-11-28T02:49:20;10.23;;;8.32;;
27580;SDS011;63557;52.302;7.964;2022-11-28T02:54:22;12.80;;;8.60;;
27580;SDS011;63557;52.302;7.964;2022-11-28T03:04:39;12.82;;;9.00;;
27580;SDS011;63557;52.302;7.964;2022-11-28T03:09:48;12.50;;;8.80;;
27580;SDS011;63557;52.302;7.964;2022-11-28T03:14:52;16.08;;;9.02;;
27580;SDS011;63557;52.302;7.964;2022-11-28T03:19:56;12.85;;;8.88;;
27580;SDS011;63557;52.302;7.964;2022-11-28T03:30:08;11.93;;;8.75;;
27580;SDS011;63557;52.302;7.964;2022-11-28T03:35:13;12.82;;;9.63;;
27580;SDS011;63557;52.302;7.964;2022-11-28T03:40:15;15.02;;;9.38;;
27580;SDS011;63557;52.302;7.964;2022-11-28T03:45:20;14.05;;;10.85;;
27580;SDS011;63557;52.302;7.964;2022-11-28T03:50:25;14.50;;;9.82;;
27580;SDS011;63557;52.302;7.964;2022-11-28T03:55:41;12.30;;;9.23;;
27580;SDS011;63557;52.302;7.964;2022-11-28T04:00:57;17.17;;;10.48;;
27580;SDS011;63557;52.302;7.964;2022-11-28T04:06:03;15.07;;;10.95;;
27580;SDS011;63557;52.302;7.964;2022-11-28T04:11:13;15.80;;;10.02;;
27580;SDS011;63557;52.302;7.964;2022-11-28T04:16:30;21.92;;;11.75;;
27580;SDS011;63557;52.302;7.964;2022-11-28T04:21:41;17.73;;;10.85;;
27580;SDS011;63557;52.302;7.964;2022-11-28T04:26:46;17.33;;;10.88;;
27580;SDS011;63557;52.302;7.964;2022-11-28T04:31:48;15.25;;;10.55;;
27580;SDS011;63557;52.302;7.964;2022-11-28T04:36:50;20.88;;;11.65;;
27580;SDS011;63557;52.302;7.964;2022-11-28T04:46:53;16.57;;;10.70;;
27580;SDS011;63557;52.302;7.964;2022-11-28T04:52:05;19.73;;;11.30;;
27580;SDS011;63557;52.302;7.964;2022-11-28T04:57:16;18.65;;;10.85;;
27580;SDS011;63557;52.302;7.964;2022-11-28T05:02:19;22.60;;;12.70;;
27580;SDS011;63557;52.302;7.964;2022-11-28T05:07:20;22.23;;;14.00;;
27580;SDS011;63557;52.302;7.964;2022-11-28T05:12:21;21.05;;;14.50;;
27580;SDS011;63557;52.302;7.964;2022-11-28T05:17:21;26.77;;;14.80;;
27580;SDS011;63557;52.302;7.964;2022-11-28T05:22:21;22.63;;;14.80;;
27580;SDS011;63557;52.302;7.964;2022-11-28T05:27:22;25.13;;;14.67;;
27580;SDS011;63557;52.302;7.964;2022-11-28T05:32:22;24.83;;;15.70;;
27580;SDS011;63557;52.302;7.964;2022-11-28T05:37:23;23.92;;;14.45;;
27580;SDS011;63557;52.302;7.964;2022-11-28T05:42:24;31.17;;;17.48;;
27580;SDS011;63557;52.302;7.964;2022-11-28T05:47:30;23.50;;;16.10;;
27580;SDS011;63557;52.302;7.964;2022-11-28T05:52:30;28.55;;;17.10;;
27580;SDS011;63557;52.302;7.964;2022-11-28T05:57:31;26.85;;;16.20;;
27580;SDS011;63557;52.302;7.964;2022-11-28T06:02:33;29.45;;;17.90;;
27580;SDS011;63557;52.302;7.964;2022-11-28T06:07:34;24.17;;;17.17;;
27580;SDS011;63557;52.302;7.964;2022-11-28T06:12:34;26.13;;;16.87;;
27580;SDS011;63557;52.302;7.964;2022-11-28T06:17:35;33.80;;;18.13;;
27580;SDS011;63557;52.302;7.964;2022-11-28T06:22:35;31.20;;;18.97;;
27580;SDS011;63557;52.302;7.964;2022-11-28T06:27:35;32.83;;;18.27;;
27580;SDS011;63557;52.302;7.964;2022-11-28T06:32:36;32.70;;;19.90;;
27580;SDS011;63557;52.302;7.964;2022-11-28T06:37:36;35.90;;;20.37;;
27580;SDS011;63557;52.302;7.964;2022-11-28T06:42:36;37.77;;;18.80;;
27580;SDS011;63557;52.302;7.964;2022-11-28T06:47:37;33.42;;;19.00;;
27580;SDS011;63557;52.302;7.964;2022-11-28T06:52:37;30.47;;;18.70;;
27580;SDS011;63557;52.302;7.964;2022-11-28T06:57:37;29.38;;;19.20;;
27580;SDS011;63557;52.302;7.964;2022-11-28T07:02:38;30.98;;;17.85;;
27580;SDS011;63557;52.302;7.964;2022-11-28T07:07:38;26.30;;;17.00;;
27580;SDS011;63557;52.302;7.964;2022-11-28T07:12:39;26.33;;;18.17;;
27580;SDS011;63557;52.302;7.964;2022-11-28T07:17:39;27.33;;;16.73;;
27580;SDS011;63557;52.302;7.964;2022-11-28T07:22:39;25.23;;;15.03;;
27580;SDS011;63557;52.302;7.964;2022-11-28T07:27:40;23.70;;;14.97;;
27580;SDS011;63557;52.302;7.964;2022-11-28T07:32:41;23.48;;;15.88;;
27580;SDS011;63557;52.302;7.964;2022-11-28T07:37:41;26.20;;;15.95;;
27580;SDS011;63557;52.302;7.964;2022-11-28T07:42:42;24.75;;;16.65;;
27580;SDS011;63557;52.302;7.964;2022-11-28T07:47:42;28.07;;;15.93;;
27580;SDS011;63557;52.302;7.964;2022-11-28T07:52:42;26.77;;;15.73;;
27580;SDS011;63557;52.302;7.964;2022-11-28T07:57:43;28.50;;;17.83;;
27580;SDS011;63557;52.302;7.964;2022-11-28T08:02:43;29.37;;;17.97;;
27580;SDS011;63557;52.302;7.964;2022-11-28T08:07:43;27.83;;;17.53;;
27580;SDS011;63557;52.302;7.964;2022-11-28T08:12:44;26.50;;;17.67;;
27580;SDS011;63557;52.302;7.964;2022-11-28T08:17:44;27.00;;;16.00;;
27580;SDS011;63557;52.302;7.964;2022-11-28T08:22:44;26.27;;;17.10;;
27580;SDS011;63557;52.302;7.964;2022-11-28T08:27:45;25.07;;;15.43;;
27580;SDS011;63557;52.302;7.964;2022-11-28T08:32:45;26.55;;;18.58;;
27580;SDS011;63557;52.302;7.964;2022-11-28T08:37:45;26.63;;;17.93;;
27580;SDS011;63557;52.302;7.964;2022-11-28T08:42:46;26.83;;;17.37;;
27580;SDS011;63557;52.302;7.964;2022-11-28T08:47:46;32.93;;;17.50;;
27580;SDS011;63557;52.302;7.964;2022-11-28T08:52:46;30.57;;;18.70;;
27580;SDS011;63557;52.302;7.964;2022-11-28T08:57:47;28.47;;;17.17;;
27580;SDS011;63557;52.302;7.964;2022-11-28T09:02:47;27.67;;;17.67;;
27580;SDS011;63557;52.302;7.964;2022-11-28T09:07:47;27.87;;;17.63;;
27580;SDS011;63557;52.302;7.964;2022-11-28T09:12:48;28.00;;;16.80;;
27580;SDS011;63557;52.302;7.964;2022-11-28T09:17:48;23.77;;;16.20;;
27580;SDS011;63557;52.302;7.964;2022-11-28T09:22:49;26.17;;;15.87;;
27580;SDS011;63557;52.302;7.964;2022-11-28T09:27:49;23.83;;;15.90;;
27580;SDS011;63557;52.302;7.964;2022-11-28T09:32:49;21.30;;;15.83;;
27580;SDS011;63557;52.302;7.964;2022-11-28T09:37:50;24.98;;;16.45;;
27580;SDS011;63557;52.302;7.964;2022-11-28T09:42:50;26.13;;;15.53;;
27580;SDS011;63557;52.302;7.964;2022-11-28T09:47:56;19.13;;;13.82;;
27580;SDS011;63557;52.302;7.964;2022-11-28T09:53:00;21.98;;;15.50;;
27580;SDS011;63557;52.302;7.964;2022-11-28T09:58:07;23.95;;;16.02;;
27580;SDS011;63557;52.302;7.964;2022-11-28T10:13:21;24.35;;;15.50;;
27580;SDS011;63557;52.302;7.964;2022-11-28T10:18:34;25.15;;;15.60;;
27580;SDS011;63557;52.302;7.964;2022-11-28T10:23:41;21.55;;;15.15;;
27580;SDS011;63557;52.302;7.964;2022-11-28T10:28:43;21.52;;;14.95;;
27580;SDS011;63557;52.302;7.964;2022-11-28T10:33:54;19.63;;;14.07;;
27580;SDS011;63557;52.302;7.964;2022-11-28T10:38:56;19.27;;;13.48;;
27580;SDS011;63557;52.302;7.964;2022-11-28T10:44:17;20.92;;;14.65;;
27580;SDS011;63557;52.302;7.964;2022-11-28T10:54:53;19.35;;;14.35;;
27580;SDS011;63557;52.302;7.964;2022-11-28T11:00:12;24.17;;;13.85;;
27580;SDS011;63557;52.302;7.964;2022-11-28T11:05:27;27.25;;;14.70;;
27580;SDS011;63557;52.302;7.964;2022-11-28T11:15:37;21.58;;;14.27;;
27580;SDS011;63557;52.302;7.964;2022-11-28T11:20:38;19.45;;;14.35;;
27580;SDS011;63557;52.302;7.964;2022-11-28T11:30:48;23.08;;;14.93;;
27580;SDS011;63557;52.302;7.964;2022-11-28T11:35:48;22.67;;;15.73;;
27580;SDS011;63557;52.302;7.964;2022-11-28T11:40:49;23.60;;;16.07;;
27580;SDS011;63557;52.302;7.964;2022-11-28T11:46:06;26.00;;;16.45;;
27580;SDS011;63557;52.302;7.964;2022-11-28T11:51:24;28.92;;;17.38;;
27580;SDS011;63557;52.302;7.964;2022-11-28T11:56:24;24.35;;;17.00;;
27580;SDS011;63557;52.302;7.964;2022-11-28T12:01:25;25.17;;;16.90;;
27580;SDS011;63557;52.302;7.964;2022-11-28T12:06:36;25.08;;;17.15;;
27580;SDS011;63557;52.302;7.964;2022-11-28T12:11:38;27.33;;;16.33;;
27580;SDS011;63557;52.302;7.964;2022-11-28T12:21:57;26.88;;;17.35;;
27580;SDS011;63557;52.302;7.964;2022-11-28T12:42:27;23.67;;;16.50;;
27580;SDS011;63557;52.302;7.964;2022-11-28T12:57:53;31.13;;;19.17;;
27580;SDS011;63557;52.302;7.964;2022-11-28T13:12:57;31.00;;;19.33;;
27580;SDS011;63557;52.302;7.964;2022-11-28T13:23:33;29.20;;;20.20;;
27580;SDS011;63557;52.302;7.964;2022-11-28T13:28:55;30.48;;;20.02;;
27580;SDS011;63557;52.302;7.964;2022-11-28T13:33:58;30.60;;;20.90;;
27580;SDS011;63557;52.302;7.964;2022-11-28T13:39:11;31.35;;;20.35;;
27580;SDS011;63557;52.302;7.964;2022-11-28T13:49:23;28.45;;;20.13;;
27580;SDS011;63557;52.302;7.964;2022-11-28T13:59:25;30.23;;;19.90;;
27580;SDS011;63557;52.302;7.964;2022-11-28T14:04:25;29.95;;;18.85;;
27580;SDS011;63557;52.302;7.964;2022-11-28T14:09:32;29.73;;;20.13;;
27580;SDS011;63557;52.302;7.964;2022-11-28T14:14:40;30.65;;;18.20;;
27580;SDS011;63557;52.302;7.964;2022-11-28T14:19:47;32.05;;;20.02;;
27580;SDS011;63557;52.302;7.964;2022-11-28T14:29:53;27.60;;;19.52;;
27580;SDS011;63557;52.302;7.964;2022-11-28T14:34:56;32.08;;;20.52;;
27580;SDS011;63557;52.302;7.964;2022-11-28T14:39:57;29.77;;;20.17;;
27580;SDS011;63557;52.302;7.964;2022-11-28T14:44:58;33.75;;;18.98;;
27580;SDS011;63557;52.302;7.964;2022-11-28T15:15:21;32.95;;;20.60;;
27580;SDS011;63557;52.302;7.964;2022-11-28T15:20:24;34.25;;;20.88;;
27580;SDS011;63557;52.302;7.964;2022-11-28T15:25:27;33.60;;;21.20;;
27580;SDS011;63557;52.302;7.964;2022-11-28T15:30:31;37.70;;;24.15;;
27580;SDS011;63557;52.302;7.964;2022-11-28T15:35:31;36.17;;;23.95;;
27580;SDS011;63557;52.302;7.964;2022-11-28T15:40:32;38.75;;;25.15;;
27580;SDS011;63557;52.302;7.964;2022-11-28T15:45:33;36.83;;;23.80;;
27580;SDS011;63557;52.302;7.964;2022-11-28T15:50:34;35.13;;;23.35;;
27580;SDS011;63557;52.302;7.964;2022-11-28T15:55:35;41.08;;;25.75;;
27580;SDS011;63557;52.302;7.964;2022-11-28T16:00:38;48.67;;;27.58;;
27580;SDS011;63557;52.302;7.964;2022-11-28T16:05:40;45.58;;;28.30;;
27580;SDS011;63557;52.302;7.964;2022-11-28T16:10:42;46.80;;;28.88;;
27580;SDS011;63557;52.302;7.964;2022-11-28T16:15:46;47.38;;;27.92;;
27580;SDS011;63557;52.302;7.964;2022-11-28T16:20:47;48.30;;;28.52;;
27580;SDS011;63557;52.302;7.964;2022-11-28T16:31:19;49.53;;;30.15;;
27580;SDS011;63557;52.302;7.964;2022-11-28T16:41:23;47.63;;;29.48;;
27580;SDS011;63557;52.302;7.964;2022-11-28T16:46:25;49.20;;;30.42;;
27580;SDS011;63557;52.302;7.964;2022-11-28T16:51:29;52.05;;;31.60;;
27580;SDS011;63557;52.302;7.964;2022-11-28T17:01:29;52.22;;;32.28;;
27580;SDS011;63557;52.302;7.964;2022-11-28T17:06:31;51.10;;;31.73;;
27580;SDS011;63557;52.302;7.964;2022-11-28T17:11:34;56.33;;;34.63;;
27580;SDS011;63557;52.302;7.964;2022-11-28T17:16:35;55.67;;;34.00;;
27580;SDS011;63557;52.302;7.964;2022-11-28T17:21:47;48.33;;;30.67;;
27580;SDS011;63557;52.302;7.964;2022-11-28T17:26:50;48.50;;;30.92;;
27580;SDS011;63557;52.302;7.964;2022-11-28T17:31:51;51.65;;;32.10;;
27580;SDS011;63557;52.302;7.964;2022-11-28T17:36:54;48.40;;;30.25;;
27580;SDS011;63557;52.302;7.964;2022-11-28T17:41:54;57.15;;;32.50;;
27580;SDS011;63557;52.302;7.964;2022-11-28T17:46:56;58.17;;;33.03;;
27580;SDS011;63557;52.302;7.964;2022-11-28T17:51:57;56.28;;;32.15;;
27580;SDS011;63557;52.302;7.964;2022-11-28T17:56:57;48.03;;;31.10;;
27580;SDS011;63557;52.302;7.964;2022-11-28T18:01:57;54.17;;;33.37;;
27580;SDS011;63557;52.302;7.964;2022-11-28T18:06:58;54.95;;;32.60;;
27580;SDS011;63557;52.302;7.964;2022-11-28T18:11:59;56.78;;;34.42;;
27580;SDS011;63557;52.302;7.964;2022-11-28T18:16:59;55.13;;;33.47;;
27580;SDS011;63557;52.302;7.964;2022-11-28T18:22:00;58.22;;;35.47;;
27580;SDS011;63557;52.302;7.964;2022-11-28T18:27:00;56.85;;;36.08;;
27580;SDS011;63557;52.302;7.964;2022-11-28T18:32:01;56.78;;;36.25;;
27580;SDS011;63557;52.302;7.964;2022-11-28T18:37:01;56.43;;;34.67;;
27580;SDS011;63557;52.302;7.964;2022-11-28T18:42:04;61.83;;;35.70;;
27580;SDS011;63557;52.302;7.964;2022-11-28T18:47:04;55.60;;;35.28;;
27580;SDS011;63557;52.302;7.964;2022-11-28T18:52:05;57.22;;;35.03;;
27580;SDS011;63557;52.302;7.964;2022-11-28T18:57:06;54.92;;;33.28;;
27580;SDS011;63557;52.302;7.964;2022-11-28T19:02:08;54.25;;;35.38;;
27580;SDS011;63557;52.302;7.964;2022-11-28T19:07:10;68.95;;;38.55;;
27580;SDS011;63557;52.302;7.964;2022-11-28T19:12:11;69.28;;;38.90;;
27580;SDS011;63557;52.302;7.964;2022-11-28T19:17:11;62.92;;;37.35;;
27580;SDS011;63557;52.302;7.964;2022-11-28T19:22:11;66.18;;;39.97;;
27580;SDS011;63557;52.302;7.964;2022-11-28T19:27:12;70.35;;;39.00;;
27580;SDS011;63557;52.302;7.964;2022-11-28T19:32:12;71.43;;;42.07;;
27580;SDS011;63557;52.302;7.964;2022-11-28T19:37:13;72.15;;;41.80;;
27580;SDS011;63557;52.302;7.964;2022-11-28T19:42:14;73.55;;;41.67;;
27580;SDS011;63557;52.302;7.964;2022-11-28T19:47:15;76.22;;;41.47;;
27580;SDS011;63557;52.302;7.964;2022-11-28T19:52:16;76.97;;;43.83;;
27580;SDS011;63557;52.302;7.964;2022-11-28T19:57:16;77.20;;;42.67;;
27580;SDS011;63557;52.302;7.964;2022-11-28T20:02:17;80.88;;;41.90;;
27580;SDS011;63557;52.302;7.964;2022-11-28T20:07:21;82.65;;;43.45;;
27580;SDS011;63557;52.302;7.964;2022-11-28T20:12:21;92.23;;;44.13;;
27580;SDS011;63557;52.302;7.964;2022-11-28T20:17:21;93.73;;;44.73;;
27580;SDS011;63557;52.302;7.964;2022-11-28T20:22:22;107.20;;;47.57;;
27580;SDS011;63557;52.302;7.964;2022-11-28T20:27:24;94.28;;;47.67;;
27580;SDS011;63557;52.302;7.964;2022-11-28T20:32:26;94.10;;;45.72;;
27580;SDS011;63557;52.302;7.964;2022-11-28T20:37:26;116.03;;;48.78;;
27580;SDS011;63557;52.302;7.964;2022-11-28T20:42:27;117.43;;;55.58;;
27580;SDS011;63557;52.302;7.964;2022-11-28T20:47:27;123.63;;;53.53;;
27580;SDS011;63557;52.302;7.964;2022-11-28T20:52:28;115.28;;;52.80;;
27580;SDS011;63557;52.302;7.964;2022-11-28T20:57:28;125.43;;;52.23;;
27580;SDS011;63557;52.302;7.964;2022-11-28T21:02:28;121.17;;;50.50;;
27580;SDS011;63557;52.302;7.964;2022-11-28T21:07:29;126.95;;;53.83;;
27580;SDS011;63557;52.302;7.964;2022-11-28T21:12:30;136.73;;;50.22;;
27580;SDS011;63557;52.302;7.964;2022-11-28T21:17:30;138.97;;;51.30;;
27580;SDS011;63557;52.302;7.964;2022-11-28T21:22:31;134.30;;;51.50;;
27580;SDS011;63557;52.302;7.964;2022-11-28T21:27:32;136.02;;;54.15;;
27580;SDS011;63557;52.302;7.964;2022-11-28T21:32:34;160.63;;;56.60;;
27580;SDS011;63557;52.302;7.964;2022-11-28T21:37:34;148.93;;;54.43;;
27580;SDS011;63557;52.302;7.964;2022-11-28T21:42:35;147.37;;;56.43;;
27580;SDS011;63557;52.302;7.964;2022-11-28T21:47:35;157.68;;;55.17;;
27580;SDS011;63557;52.302;7.964;2022-11-28T21:52:35;163.40;;;57.17;;
27580;SDS011;63557;52.302;7.964;2022-11-28T21:57:36;187.75;;;58.75;;
27580;SDS011;63557;52.302;7.964;2022-11-28T22:02:37;152.50;;;55.22;;
27580;SDS011;63557;52.302;7.964;2022-11-28T22:07:38;205.88;;;59.03;;
27580;SDS011;63557;52.302;7.964;2022-11-28T22:12:38;273.23;;;61.30;;
27580;SDS011;63557;52.302;7.964;2022-11-28T22:17:39;191.38;;;58.70;;
27580;SDS011;63557;52.302;7.964;2022-11-28T22:22:39;285.30;;;60.87;;
27580;SDS011;63557;52.302;7.964;2022-11-28T22:27:40;276.55;;;60.42;;
27580;SDS011;63557;52.302;7.964;2022-11-28T22:32:40;282.65;;;61.80;;
27580;SDS011;63557;52.302;7.964;2022-11-28T22:37:41;246.87;;;59.33;;
27580;SDS011;63557;52.302;7.964;2022-11-28T22:42:41;189.30;;;57.72;;
27580;SDS011;63557;52.302;7.964;2022-11-28T22:47:42;300.73;;;61.03;;
27580;SDS011;63557;52.302;7.964;2022-11-28T22:52:42;296.98;;;61.67;;
27580;SDS011;63557;52.302;7.964;2022-11-28T22:57:43;316.00;;;63.45;;
27580;SDS011;63557;52.302;7.964;2022-11-28T23:02:44;499.67;;;69.28;;
27580;SDS011;63557;52.302;7.964;2022-11-28T23:07:44;195.52;;;55.95;;
27580;SDS011;63557;52.302;7.964;2022-11-28T23:12:45;190.90;;;57.30;;
27580;SDS011;63557;52.302;7.964;2022-11-28T23:17:45;188.95;;;56.40;;
27580;SDS011;63557;52.302;7.964;2022-11-28T23:22:46;185.43;;;52.50;;
27580;SDS011;63557;52.302;7.964;2022-11-28T23:27:46;252.00;;;59.33;;
27580;SDS011;63557;52.302;7.964;2022-11-28T23:32:47;268.60;;;59.75;;
27580;SDS011;63557;52.302;7.964;2022-11-28T23:37:47;197.48;;;58.20;;
27580;SDS011;63557;52.302;7.964;2022-11-28T23:42:47;467.03;;;68.27;;
27580;SDS011;63557;52.302;7.964;2022-11-28T23:47:48;469.63;;;62.43;;
27580;SDS011;63557;52.302;7.964;2022-11-28T23:52:48;364.93;;;59.60;;
27580;SDS011;63557;52.302;7.964;2022-11-28T23:57:48;431.77;;;64.97;;
